首页
METAR-TAF:

METAR-TAF

机场 :

迪亚巴克尔, 土耳其

纬度: 37-53N, 经度: 040-11E, 海拔: 686米

当前天气观测

该预报发布于38分钟前的02:20 UTC
风速6节,风向西转西北
温度 -3°C
湿度 74%
气压 1015 hPa
能见度10公里或以上
1500米以下无云,无积雨云

METAR: LTCC 230220Z 30006KT CAVOK M03/M07 Q1015 NOSIG RMK RWY16 VRB01KT

时间: 05:58 (02:58 UTC)

预报

该预报发布于4小时和18分钟前的22:40 UTC
预报有效从23日的 00点(UTC)到 23日的 24点(UTC)
风速6节,风向西转西北
能见度10公里或以上
1500米以下无云,无积雨云
成为
从 23日的 11点(UTC)到 23日的 14点(UTC)
散云层高于4000英尺
多云层高于10000英尺

TAF: LTCC 222240Z 2300/2324 30006KT CAVOK BECMG 2311/2314 SCT040 BKN100

超过4000个机场的气象观测和天气预报(METAR&TAF报告)。

可查询的气象台以黄色和红色小点在地图上表示。

将鼠标移到小点上方,可查看气象台名称。

然后点击查看天气观测和预报。

如需切换地图:点击带黑十字的绿色按钮放大地图;点击带横线的绿色按钮缩小地图;或者点击绿色箭头查看邻近地区的地图。


METAR-TAF: